Time;durP1;ratioP1;P1;durP2;ratioP2;P2;SDS_P1;SDS_P2;PMS_P1;PMS_P2;Temp;Humidity;BMP_temperature;BMP_pressure;BME280_temperature;BME280_humidity;BME280_pressure;Samples;Min_cycle;Max_cycle;Signal;HPM_P1;HPM_P2
2022/08/15 00:02:08;;;;;;;4.68;3.75;;;;;;;;;;5054466;28;20695;-65
2022/08/15 00:04:34;;;;;;;4.35;3.50;;;;;;;;;;5066656;28;20287;-65
2022/08/15 00:06:59;;;;;;;3.70;3.40;;;;;;;;;;5059775;28;20283;-65
2022/08/15 00:09:24;;;;;;;5.82;3.63;;;;;;;;;;5077236;28;20201;-65
2022/08/15 00:11:53;;;;;;;3.70;3.10;;;;;;;;;;5066920;28;20235;-65
2022/08/15 00:14:24;;;;;;;3.85;3.55;;;;;;;;;;5049011;28;20198;-66
2022/08/15 00:16:50;;;;;;;3.75;3.45;;;;;;;;;;5058454;28;20729;-65
2022/08/15 00:19:20;;;;;;;4.50;3.63;;;;;;;;;;5067050;28;20268;-65
2022/08/15 00:21:48;;;;;;;6.15;3.40;;;;;;;;;;5057493;28;20185;-65
2022/08/15 00:24:16;;;;;;;7.65;3.50;;;;;;;;;;5047140;28;20181;-65
2022/08/15 00:26:49;;;;;;;4.43;4.03;;;;;;;;;;5059402;28;20302;-65
2022/08/15 00:29:17;;;;;;;4.35;3.92;;;;;;;;;;5068470;28;20234;-65
2022/08/15 00:31:42;;;;;;;4.28;3.80;;;;;;;;;;5057778;28;20285;-65
2022/08/15 00:34:11;;;;;;;5.10;4.22;;;;;;;;;;5048615;28;20227;-65
2022/08/15 00:36:37;;;;;;;4.72;4.13;;;;;;;;;;5050104;28;20178;-66
2022/08/15 00:39:04;;;;;;;4.65;3.92;;;;;;;;;;5050852;28;20231;-65
2022/08/15 00:41:41;;;;;;;5.05;4.30;;;;;;;;;;5048795;28;20181;-66
2022/08/15 00:44:13;;;;;;;5.32;4.05;;;;;;;;;;5061489;28;20196;-66
2022/08/15 00:46:41;;;;;;;6.22;4.10;;;;;;;;;;5067626;28;20180;-65
2022/08/15 00:49:07;;;;;;;4.53;4.13;;;;;;;;;;5068062;28;20236;-66
2022/08/15 00:51:43;;;;;;;4.28;3.67;;;;;;;;;;5062717;28;20209;-65
2022/08/15 00:54:25;;;;;;;6.10;3.90;;;;;;;;;;5048639;28;20181;-65
2022/08/15 00:56:55;;;;;;;4.47;4.07;;;;;;;;;;5053152;28;20274;-65
2022/08/15 00:59:25;;;;;;;4.85;4.00;;;;;;;;;;5060271;28;20238;-66
2022/08/15 01:01:52;;;;;;;4.18;3.78;;;;;;;;;;5067585;28;20268;-65
2022/08/15 01:04:18;;;;;;;4.32;3.60;;;;;;;;;;5063574;28;20230;-65
2022/08/15 01:06:45;;;;;;;4.75;3.35;;;;;;;;;;5067632;28;20200;-65
2022/08/15 01:09:12;;;;;;;4.13;3.13;;;;;;;;;;5073219;28;20810;-66
2022/08/15 01:11:43;;;;;;;4.72;3.40;;;;;;;;;;5067865;28;20181;-66
2022/08/15 01:14:09;;;;;;;5.32;3.20;;;;;;;;;;5067764;28;20188;-66
2022/08/15 01:16:39;;;;;;;3.78;3.38;;;;;;;;;;5067829;28;20245;-66
2022/08/15 01:19:19;;;;;;;3.70;3.40;;;;;;;;;;5048008;28;20665;-66
2022/08/15 01:22:04;;;;;;;3.92;3.30;;;;;;;;;;5050864;28;20542;-65
2022/08/15 01:24:35;;;;;;;3.85;3.45;;;;;;;;;;5056309;28;20189;-66
2022/08/15 01:27:01;;;;;;;3.60;3.30;;;;;;;;;;5053127;28;20658;-66
2022/08/15 01:29:27;;;;;;;4.90;4.13;;;;;;;;;;5059967;28;20213;-66
2022/08/15 01:31:53;;;;;;;4.13;3.78;;;;;;;;;;5047835;28;20210;-65
2022/08/15 01:34:18;;;;;;;4.50;4.10;;;;;;;;;;5046495;28;20280;-66
2022/08/15 01:36:44;;;;;;;6.13;3.88;;;;;;;;;;5047322;28;20227;-65
2022/08/15 01:39:27;;;;;;;4.45;4.05;;;;;;;;;;5047009;28;20174;-66
2022/08/15 01:42:21;;;;;;;4.43;3.90;;;;;;;;;;5060104;28;20204;-66
2022/08/15 01:45:00;;;;;;;4.78;4.38;;;;;;;;;;5066244;28;20258;-66
2022/08/15 01:47:27;;;;;;;4.60;4.03;;;;;;;;;;5054937;28;20192;-65
2022/08/15 01:50:20;;;;;;;5.20;4.63;;;;;;;;;;5065719;28;20252;-66
2022/08/15 01:52:45;;;;;;;4.70;4.28;;;;;;;;;;5051923;28;20181;-65
2022/08/15 01:55:14;;;;;;;5.95;4.32;;;;;;;;;;5047873;28;20190;-65
2022/08/15 01:57:39;;;;;;;6.65;4.40;;;;;;;;;;5059417;28;20173;-66
2022/08/15 02:00:08;;;;;;;6.25;5.05;;;;;;;;;;5054547;28;20676;-65
2022/08/15 02:02:34;;;;;;;5.15;4.65;;;;;;;;;;5058681;28;20185;-65
2022/08/15 02:04:59;;;;;;;6.20;5.05;;;;;;;;;;5069968;28;20199;-65
2022/08/15 02:07:28;;;;;;;6.60;5.13;;;;;;;;;;5070235;28;20246;-66
2022/08/15 02:09:54;;;;;;;7.05;5.60;;;;;;;;;;5054867;28;20293;-66
2022/08/15 02:12:25;;;;;;;6.82;5.30;;;;;;;;;;5064566;28;20633;-66
2022/08/15 02:14:50;;;;;;;6.50;5.38;;;;;;;;;;5065136;28;20184;-66
2022/08/15 02:17:16;;;;;;;5.82;5.32;;;;;;;;;;5065027;28;20188;-65
2022/08/15 02:19:45;;;;;;;6.95;5.60;;;;;;;;;;5055107;28;20719;-65
2022/08/15 02:22:12;;;;;;;6.55;5.55;;;;;;;;;;5055000;28;20203;-65
2022/08/15 02:24:38;;;;;;;6.63;5.60;;;;;;;;;;5064327;28;20185;-66
2022/08/15 02:27:04;;;;;;;7.53;5.95;;;;;;;;;;5063757;28;20316;-66
2022/08/15 02:29:30;;;;;;;7.13;5.70;;;;;;;;;;5058928;28;20538;-66
2022/08/15 02:32:00;;;;;;;6.47;5.82;;;;;;;;;;5055997;28;20273;-65
2022/08/15 02:34:26;;;;;;;6.80;5.82;;;;;;;;;;5052805;28;20254;-65
2022/08/15 02:36:52;;;;;;;6.53;5.70;;;;;;;;;;5063422;28;20181;-66
2022/08/15 02:39:18;;;;;;;7.10;5.45;;;;;;;;;;5065452;28;20188;-66
2022/08/15 02:41:49;;;;;;;7.30;5.43;;;;;;;;;;5060298;28;20181;-66
2022/08/15 02:44:16;;;;;;;7.32;5.97;;;;;;;;;;5064798;28;20240;-66
2022/08/15 02:46:43;;;;;;;6.13;5.53;;;;;;;;;;5070948;28;20180;-66
2022/08/15 02:49:12;;;;;;;7.13;6.05;;;;;;;;;;5070487;28;20208;-66
2022/08/15 02:51:42;;;;;;;7.20;5.85;;;;;;;;;;5054002;28;20662;-65
2022/08/15 02:54:09;;;;;;;6.63;5.57;;;;;;;;;;5070500;28;20192;-65
2022/08/15 02:56:35;;;;;;;8.98;6.28;;;;;;;;;;5052380;28;20567;-65
2022/08/15 02:59:02;;;;;;;7.28;5.90;;;;;;;;;;5057283;28;20181;-66
2022/08/15 03:01:29;;;;;;;7.57;6.40;;;;;;;;;;5064868;28;20263;-66
2022/08/15 03:03:56;;;;;;;7.85;6.25;;;;;;;;;;5061780;28;20193;-66
2022/08/15 03:06:30;;;;;;;8.57;6.47;;;;;;;;;;5051324;28;20260;-66
2022/08/15 03:09:00;;;;;;;9.30;7.38;;;;;;;;;;5067834;28;20204;-66
2022/08/15 03:11:29;;;;;;;9.05;6.95;;;;;;;;;;5066919;28;20192;-67
2022/08/15 03:13:54;;;;;;;9.05;6.70;;;;;;;;;;5067733;28;20481;-66
2022/08/15 03:16:20;;;;;;;10.20;7.80;;;;;;;;;;5069380;28;20260;-66
2022/08/15 03:18:45;;;;;;;8.48;7.30;;;;;;;;;;5070328;28;20271;-66
2022/08/15 03:21:14;;;;;;;8.18;6.90;;;;;;;;;;5056522;28;20507;-66
2022/08/15 03:23:48;;;;;;;7.07;6.32;;;;;;;;;;5049908;28;20185;-66
2022/08/15 03:26:14;;;;;;;7.95;7.13;;;;;;;;;;5061869;28;20721;-66
2022/08/15 03:28:40;;;;;;;7.85;6.97;;;;;;;;;;5050907;28;20610;-66
2022/08/15 03:31:06;;;;;;;8.65;7.40;;;;;;;;;;5049595;28;20186;-66
2022/08/15 03:33:33;;;;;;;9.82;7.43;;;;;;;;;;5051284;28;20536;-65
2022/08/15 03:35:59;;;;;;;7.68;6.68;;;;;;;;;;5060827;28;20672;-66
2022/08/15 03:38:25;;;;;;;11.52;7.88;;;;;;;;;;5049938;28;20174;-66
2022/08/15 03:40:51;;;;;;;10.80;8.20;;;;;;;;;;5051527;28;20177;-66
2022/08/15 03:43:22;;;;;;;8.80;7.43;;;;;;;;;;5056396;28;20189;-66
2022/08/15 03:45:52;;;;;;;8.40;7.60;;;;;;;;;;5049642;28;20181;-66
2022/08/15 03:48:19;;;;;;;11.68;8.50;;;;;;;;;;5049177;28;20296;-66
2022/08/15 03:50:45;;;;;;;9.70;8.00;;;;;;;;;;5048992;28;20235;-66
2022/08/15 03:53:12;;;;;;;10.27;8.68;;;;;;;;;;5051931;28;20783;-66
2022/08/15 03:55:40;;;;;;;13.13;8.95;;;;;;;;;;5066332;28;20444;-66
2022/08/15 03:58:06;;;;;;;9.13;7.93;;;;;;;;;;5066714;28;20253;-66
2022/08/15 04:00:36;;;;;;;9.85;8.07;;;;;;;;;;5062733;28;20659;-66
2022/08/15 04:03:29;;;;;;;13.32;8.30;;;;;;;;;;5062916;28;20215;-66
2022/08/15 04:05:57;;;;;;;12.43;8.75;;;;;;;;;;5067157;28;20200;-66
2022/08/15 04:08:24;;;;;;;11.57;8.95;;;;;;;;;;5069947;28;20200;-66
2022/08/15 04:10:51;;;;;;;11.75;8.20;;;;;;;;;;5062823;28;20200;-66
2022/08/15 04:13:19;;;;;;;11.18;8.50;;;;;;;;;;5048800;28;20177;-66
2022/08/15 04:15:45;;;;;;;12.88;8.50;;;;;;;;;;5049224;28;20223;-66
2022/08/15 04:18:10;;;;;;;11.43;9.82;;;;;;;;;;5061703;28;20266;-66
2022/08/15 04:20:37;;;;;;;9.75;8.52;;;;;;;;;;5059955;28;20185;-66
2022/08/15 04:23:04;;;;;;;12.07;9.30;;;;;;;;;;5064667;28;20243;-66
2022/08/15 04:25:33;;;;;;;15.65;10.07;;;;;;;;;;5057881;28;20185;-66
2022/08/15 04:28:02;;;;;;;13.70;9.70;;;;;;;;;;5061542;28;20224;-65
2022/08/15 04:30:31;;;;;;;10.85;9.27;;;;;;;;;;5049201;28;20189;-65
2022/08/15 04:33:13;;;;;;;12.00;10.43;;;;;;;;;;5047451;28;20212;-66
2022/08/15 04:35:41;;;;;;;14.65;9.40;;;;;;;;;;5068279;28;20185;-66
2022/08/15 04:38:07;;;;;;;10.50;9.40;;;;;;;;;;5066555;28;20188;-66
2022/08/15 04:40:32;;;;;;;13.75;9.93;;;;;;;;;;5055999;28;20255;-66
2022/08/15 04:42:58;;;;;;;12.25;10.30;;;;;;;;;;5054932;28;20200;-66
2022/08/15 04:45:26;;;;;;;10.25;9.25;;;;;;;;;;5061632;28;20262;-66
2022/08/15 04:47:52;;;;;;;14.82;10.50;;;;;;;;;;5051514;28;20177;-66
2022/08/15 04:50:18;;;;;;;11.25;9.75;;;;;;;;;;5047943;28;20684;-66
2022/08/15 04:52:47;;;;;;;11.55;9.85;;;;;;;;;;5048392;28;20194;-66
2022/08/15 04:55:14;;;;;;;12.80;9.95;;;;;;;;;;5048992;28;20589;-67
2022/08/15 04:57:40;;;;;;;12.85;10.63;;;;;;;;;;5047108;28;20173;-66
2022/08/15 05:00:09;;;;;;;13.05;10.40;;;;;;;;;;5058865;28;20217;-66
2022/08/15 05:02:35;;;;;;;11.52;10.32;;;;;;;;;;5050639;28;20652;-66
2022/08/15 05:05:00;;;;;;;12.50;10.63;;;;;;;;;;5057388;28;20184;-66
2022/08/15 05:07:25;;;;;;;12.40;9.73;;;;;;;;;;5069565;28;20563;-66
2022/08/15 05:09:51;;;;;;;12.25;9.73;;;;;;;;;;5056997;28;20189;-66
2022/08/15 05:12:16;;;;;;;10.32;9.23;;;;;;;;;;5060150;28;20196;-66
2022/08/15 05:14:41;;;;;;;10.25;9.27;;;;;;;;;;5049690;28;20169;-66
2022/08/15 05:17:07;;;;;;;10.70;8.82;;;;;;;;;;5047951;28;20229;-68
2022/08/15 05:19:32;;;;;;;11.77;9.02;;;;;;;;;;5047404;28;20731;-66
2022/08/15 05:21:58;;;;;;;13.45;10.00;;;;;;;;;;5047106;28;20731;-66
2022/08/15 05:24:23;;;;;;;12.65;11.25;;;;;;;;;;5057401;28;20216;-66
2022/08/15 05:26:48;;;;;;;11.98;10.70;;;;;;;;;;5067363;28;20221;-66
2022/08/15 05:29:15;;;;;;;14.02;11.13;;;;;;;;;;5056229;28;20244;-66
2022/08/15 05:31:40;;;;;;;12.18;10.40;;;;;;;;;;5061285;28;20193;-66
2022/08/15 05:34:06;;;;;;;12.13;10.80;;;;;;;;;;5057887;28;20211;-66
2022/08/15 05:36:33;;;;;;;15.27;11.40;;;;;;;;;;5050840;28;20177;-66
2022/08/15 05:39:22;;;;;;;17.27;11.88;;;;;;;;;;5055249;28;20684;-66
2022/08/15 05:42:11;;;;;;;13.75;11.23;;;;;;;;;;5054669;28;20188;-66
2022/08/15 05:44:48;;;;;;;15.65;11.85;;;;;;;;;;5058121;28;20201;-66
2022/08/15 05:47:22;;;;;;;16.60;11.00;;;;;;;;;;5051566;28;20228;-66
2022/08/15 05:49:53;;;;;;;13.88;11.93;;;;;;;;;;5063681;28;20208;-66
2022/08/15 05:52:30;;;;;;;17.38;12.05;;;;;;;;;;5061736;28;20657;-66
2022/08/15 05:55:16;;;;;;;13.70;11.38;;;;;;;;;;5057440;28;20212;-65
2022/08/15 05:58:00;;;;;;;14.10;10.57;;;;;;;;;;5070969;28;20188;-66
2022/08/15 06:00:27;;;;;;;12.88;9.85;;;;;;;;;;5064437;28;20535;-66
2022/08/15 06:02:57;;;;;;;13.40;10.30;;;;;;;;;;5053190;28;20185;-66
2022/08/15 06:05:33;;;;;;;11.88;10.38;;;;;;;;;;5065562;28;20216;-65
2022/08/15 06:08:02;;;;;;;15.55;12.38;;;;;;;;;;5054358;28;20189;-66
2022/08/15 06:10:33;;;;;;;15.07;11.70;;;;;;;;;;5066850;28;20699;-66
2022/08/15 06:13:12;;;;;;;15.07;12.10;;;;;;;;;;5070614;28;20184;-65
2022/08/15 06:15:53;;;;;;;14.02;10.23;;;;;;;;;;5071006;28;20189;-65
2022/08/15 06:18:21;;;;;;;15.20;10.73;;;;;;;;;;5050347;28;20182;-65
2022/08/15 06:21:06;;;;;;;13.07;10.48;;;;;;;;;;5064227;28;20257;-65
2022/08/15 06:24:22;;;;;;;16.55;10.27;;;;;;;;;;5050639;28;20196;-65
2022/08/15 06:27:10;;;;;;;11.48;9.63;;;;;;;;;;5004721;28;20716;-65
2022/08/15 06:29:42;;;;;;;18.58;11.30;;;;;;;;;;5049884;28;20278;-65
2022/08/15 06:32:36;;;;;;;13.02;10.30;;;;;;;;;;5057830;28;20288;-65
2022/08/15 06:35:27;;;;;;;12.48;10.23;;;;;;;;;;5059381;28;20599;-65
2022/08/15 06:38:05;;;;;;;13.27;11.43;;;;;;;;;;5052921;28;20346;-64
2022/08/15 06:40:40;;;;;;;13.48;10.23;;;;;;;;;;5055588;28;20172;-64
2022/08/15 06:43:12;;;;;;;15.40;11.40;;;;;;;;;;5060464;28;20484;-64
2022/08/15 06:45:40;;;;;;;15.88;10.93;;;;;;;;;;5050168;28;20185;-64
2022/08/15 06:48:09;;;;;;;16.70;12.82;;;;;;;;;;5049422;28;20213;-64
2022/08/15 06:51:03;;;;;;;17.00;12.98;;;;;;;;;;5056712;28;20181;-63
2022/08/15 06:53:47;;;;;;;17.63;13.43;;;;;;;;;;5048508;28;20204;-63
2022/08/15 06:56:16;;;;;;;20.98;14.65;;;;;;;;;;5049078;28;20258;-64
2022/08/15 06:58:51;;;;;;;16.63;13.20;;;;;;;;;;5057475;28;20203;-64
2022/08/15 07:01:32;;;;;;;19.15;14.80;;;;;;;;;;5051522;28;20188;-63
2022/08/15 07:04:22;;;;;;;20.83;16.20;;;;;;;;;;5049545;28;20185;-63
2022/08/15 07:06:54;;;;;;;20.15;16.00;;;;;;;;;;5059711;28;20180;-63
2022/08/15 07:09:48;;;;;;;19.67;17.23;;;;;;;;;;5056093;28;20201;-63
2022/08/15 07:12:32;;;;;;;18.58;16.58;;;;;;;;;;5051256;28;20205;-63
2022/08/15 07:15:20;;;;;;;23.20;18.80;;;;;;;;;;5050743;28;20174;-63
2022/08/15 07:17:56;;;;;;;20.27;17.65;;;;;;;;;;5051250;28;20516;-63
2022/08/15 07:20:22;;;;;;;18.73;16.73;;;;;;;;;;5069668;28;20180;-63
2022/08/15 07:22:47;;;;;;;23.08;18.67;;;;;;;;;;5054870;28;20174;-63
2022/08/15 07:25:16;;;;;;;27.75;20.63;;;;;;;;;;5058469;28;20266;-63
2022/08/15 07:27:52;;;;;;;28.15;19.63;;;;;;;;;;5055475;28;20362;-63
2022/08/15 07:30:22;;;;;;;28.20;21.95;;;;;;;;;;5055909;28;20200;-63
2022/08/15 07:32:53;;;;;;;23.88;19.95;;;;;;;;;;5066322;28;20327;-63
2022/08/15 07:35:29;;;;;;;27.10;21.35;;;;;;;;;;5056153;28;20176;-63
2022/08/15 07:38:05;;;;;;;31.05;23.25;;;;;;;;;;5054875;28;20457;-63
2022/08/15 07:40:36;;;;;;;24.42;21.33;;;;;;;;;;5057231;28;20191;-63
2022/08/15 07:43:05;;;;;;;27.75;22.30;;;;;;;;;;5065289;28;20682;-63
2022/08/15 07:45:35;;;;;;;26.42;21.73;;;;;;;;;;5059346;28;20594;-63
2022/08/15 07:48:03;;;;;;;28.58;23.13;;;;;;;;;;5053944;28;20180;-64
2022/08/15 07:50:37;;;;;;;24.00;21.40;;;;;;;;;;5069565;28;20192;-63
2022/08/15 07:53:23;;;;;;;31.35;23.23;;;;;;;;;;5069221;28;20208;-64
2022/08/15 07:56:04;;;;;;;28.15;23.70;;;;;;;;;;5062879;28;20258;-63
2022/08/15 07:58:32;;;;;;;27.25;22.75;;;;;;;;;;5048968;28;20177;-63
2022/08/15 08:01:24;;;;;;;26.85;23.20;;;;;;;;;;5065976;28;20229;-63
2022/08/15 08:04:00;;;;;;;27.10;23.30;;;;;;;;;;5055722;28;20552;-63
2022/08/15 08:06:31;;;;;;;30.33;23.08;;;;;;;;;;5055287;28;20180;-64
2022/08/15 08:09:15;;;;;;;25.58;21.40;;;;;;;;;;5066325;28;20209;-64
2022/08/15 08:11:57;;;;;;;27.48;23.58;;;;;;;;;;5048844;28;20652;-63
2022/08/15 08:14:39;;;;;;;29.73;24.25;;;;;;;;;;5061408;28;20223;-64
2022/08/15 08:17:18;;;;;;;27.00;22.67;;;;;;;;;;5058687;28;20638;-64
2022/08/15 08:20:05;;;;;;;28.50;23.20;;;;;;;;;;5064415;28;20712;-64
2022/08/15 08:22:49;;;;;;;22.95;20.45;;;;;;;;;;5061632;28;20259;-64
2022/08/15 08:25:32;;;;;;;32.00;24.25;;;;;;;;;;5065412;28;20185;-64
2022/08/15 08:28:29;;;;;;;31.95;25.33;;;;;;;;;;5052040;28;20282;-64
2022/08/15 08:31:07;;;;;;;27.25;22.25;;;;;;;;;;5065731;28;20192;-63
2022/08/15 08:33:58;;;;;;;29.55;23.95;;;;;;;;;;5048215;28;20212;-64
2022/08/15 08:36:36;;;;;;;31.73;24.00;;;;;;;;;;5061102;28;20550;-64
2022/08/15 08:39:26;;;;;;;30.33;23.63;;;;;;;;;;5049074;28;20174;-64
2022/08/15 08:42:05;;;;;;;28.90;22.48;;;;;;;;;;5048587;28;20648;-64
2022/08/15 08:44:54;;;;;;;25.38;21.13;;;;;;;;;;5050041;28;20657;-64
2022/08/15 08:47:30;;;;;;;29.08;22.90;;;;;;;;;;5057411;28;20212;-64
2022/08/15 08:50:26;;;;;;;31.23;23.05;;;;;;;;;;5052522;28;20220;-63
2022/08/15 08:53:06;;;;;;;26.50;22.42;;;;;;;;;;5065114;28;20192;-64
2022/08/15 08:56:14;;;;;;;25.80;21.42;;;;;;;;;;5049063;28;20584;-64
2022/08/15 08:58:48;;;;;;;24.25;21.17;;;;;;;;;;5055088;28;20165;-64
2022/08/15 09:01:17;;;;;;;20.23;17.67;;;;;;;;;;5068022;28;20191;-64
2022/08/15 09:03:49;;;;;;;26.20;20.75;;;;;;;;;;5056089;28;20181;-64
2022/08/15 09:06:22;;;;;;;29.00;21.05;;;;;;;;;;5047661;28;20188;-64
2022/08/15 09:09:00;;;;;;;20.55;17.95;;;;;;;;;;5052213;28;20207;-63
2022/08/15 09:11:49;;;;;;;22.48;19.27;;;;;;;;;;5067669;28;20199;-64
2022/08/15 09:14:27;;;;;;;24.02;18.88;;;;;;;;;;5072224;28;20698;-64
2022/08/15 09:16:55;;;;;;;22.13;19.35;;;;;;;;;;5072467;28;20173;-64
2022/08/15 09:19:26;;;;;;;26.70;19.05;;;;;;;;;;5072058;28;20184;-64
2022/08/15 09:21:52;;;;;;;22.10;19.02;;;;;;;;;;5064332;28;20188;-64
2022/08/15 09:24:20;;;;;;;19.77;17.73;;;;;;;;;;5055820;28;20189;-64
2022/08/15 09:27:00;;;;;;;21.45;19.10;;;;;;;;;;5052679;28;20217;-64
2022/08/15 09:29:36;;;;;;;24.17;19.20;;;;;;;;;;5051662;28;20291;-64
2022/08/15 09:32:28;;;;;;;23.05;18.25;;;;;;;;;;5051561;28;20200;-64
2022/08/15 09:35:19;;;;;;;22.63;17.60;;;;;;;;;;5051566;28;20181;-64
2022/08/15 09:37:56;;;;;;;20.05;16.92;;;;;;;;;;5064448;28;20263;-64
2022/08/15 09:40:43;;;;;;;21.58;18.20;;;;;;;;;;5057276;28;20256;-64
2022/08/15 09:43:35;;;;;;;20.98;16.98;;;;;;;;;;5056333;28;20633;-64
2022/08/15 09:46:27;;;;;;;19.90;17.90;;;;;;;;;;5056363;28;20174;-64
2022/08/15 09:49:02;;;;;;;20.48;17.98;;;;;;;;;;5062234;28;20299;-64
2022/08/15 09:51:43;;;;;;;19.75;16.45;;;;;;;;;;5070892;28;20234;-64
2022/08/15 09:54:21;;;;;;;19.63;15.32;;;;;;;;;;5068160;28;20189;-64
2022/08/15 09:56:48;;;;;;;19.23;14.93;;;;;;;;;;5050657;28;20267;-64
2022/08/15 09:59:18;;;;;;;15.30;13.57;;;;;;;;;;5054331;28;20265;-65
2022/08/15 10:01:59;;;;;;;23.58;14.73;;;;;;;;;;5061171;28;20174;-64
2022/08/15 10:05:01;;;;;;;17.88;13.55;;;;;;;;;;5068926;28;20259;-64
2022/08/15 10:07:51;;;;;;;17.77;12.65;;;;;;;;;;5063289;28;20211;-64
2022/08/15 10:10:24;;;;;;;15.05;12.30;;;;;;;;;;5055652;28;20225;-63
2022/08/15 10:13:05;;;;;;;15.65;12.25;;;;;;;;;;5049205;28;20601;-64
2022/08/15 10:15:40;;;;;;;17.50;12.45;;;;;;;;;;5050761;28;20193;-64
2022/08/15 10:18:08;;;;;;;13.23;10.68;;;;;;;;;;5064485;28;20189;-64
2022/08/15 10:20:33;;;;;;;11.68;10.35;;;;;;;;;;5061595;28;20188;-63
2022/08/15 10:22:59;;;;;;;13.95;10.35;;;;;;;;;;5063557;28;20204;-64
2022/08/15 10:25:36;;;;;;;18.85;9.88;;;;;;;;;;5055735;28;20282;-64
2022/08/15 10:28:11;;;;;;;12.55;9.35;;;;;;;;;;5052405;28;20302;-63
2022/08/15 10:30:46;;;;;;;14.20;9.90;;;;;;;;;;5070320;28;20220;-64
2022/08/15 10:33:26;;;;;;;12.27;9.35;;;;;;;;;;5052889;28;20204;-63
2022/08/15 10:35:55;;;;;;;10.57;8.23;;;;;;;;;;5065557;28;20648;-64
2022/08/15 10:38:25;;;;;;;11.20;8.63;;;;;;;;;;5053473;28;20260;-64
2022/08/15 10:41:09;;;;;;;10.68;8.13;;;;;;;;;;5050628;28;20549;-64
2022/08/15 10:43:48;;;;;;;11.25;7.70;;;;;;;;;;5050749;28;20185;-64
2022/08/15 10:46:18;;;;;;;8.90;7.47;;;;;;;;;;5069631;28;20245;-64
2022/08/15 10:48:43;;;;;;;10.95;7.70;;;;;;;;;;5069465;28;20193;-64
2022/08/15 10:51:36;;;;;;;9.50;7.00;;;;;;;;;;5054965;28;20181;-64
2022/08/15 10:54:18;;;;;;;12.25;7.28;;;;;;;;;;5068046;28;21773;-64
2022/08/15 10:56:43;;;;;;;9.07;7.07;;;;;;;;;;5050094;28;20189;-64
2022/08/15 10:59:15;;;;;;;10.25;6.68;;;;;;;;;;5060980;28;20644;-64
2022/08/15 11:01:44;;;;;;;11.15;5.97;;;;;;;;;;5070565;28;20185;-63
2022/08/15 11:04:35;;;;;;;14.50;6.18;;;;;;;;;;5069458;28;20184;-64
2022/08/15 11:07:15;;;;;;;8.35;5.20;;;;;;;;;;5064306;28;20196;-64
2022/08/15 11:09:40;;;;;;;11.23;5.65;;;;;;;;;;5049520;28;20193;-63
2022/08/15 11:12:07;;;;;;;8.45;5.38;;;;;;;;;;5049211;28;20186;-63
2022/08/15 11:14:39;;;;;;;5.93;4.57;;;;;;;;;;5053167;28;20188;-64
2022/08/15 11:17:14;;;;;;;7.20;4.55;;;;;;;;;;5058491;28;20555;-64
2022/08/15 11:19:44;;;;;;;7.07;4.40;;;;;;;;;;5066485;28;20237;-64
2022/08/15 11:22:19;;;;;;;5.88;4.43;;;;;;;;;;5061832;28;20197;-64
2022/08/15 11:24:56;;;;;;;10.43;4.85;;;;;;;;;;5049459;28;20183;-64
2022/08/15 11:27:25;;;;;;;7.03;4.20;;;;;;;;;;5061112;28;20602;-64
2022/08/15 11:29:57;;;;;;;8.48;4.70;;;;;;;;;;5054962;28;20545;-64
2022/08/15 11:32:42;;;;;;;7.38;4.93;;;;;;;;;;5059966;28;20206;-64
2022/08/15 11:35:28;;;;;;;5.80;4.40;;;;;;;;;;5068427;28;20227;-64
2022/08/15 11:37:57;;;;;;;5.60;4.00;;;;;;;;;;5055491;28;20181;-64
2022/08/15 11:40:38;;;;;;;8.77;3.92;;;;;;;;;;5055286;28;20211;-64
2022/08/15 11:43:06;;;;;;;6.57;4.55;;;;;;;;;;5049533;28;20672;-64
2022/08/15 11:45:36;;;;;;;5.82;4.10;;;;;;;;;;5049598;28;20180;-64
2022/08/15 11:48:11;;;;;;;6.38;3.95;;;;;;;;;;5051559;28;20549;-64
2022/08/15 11:50:39;;;;;;;8.00;4.07;;;;;;;;;;5059223;28;20685;-64
2022/08/15 11:53:09;;;;;;;6.07;5.25;;;;;;;;;;5059018;28;20186;-64
2022/08/15 11:55:39;;;;;;;8.60;5.78;;;;;;;;;;5062930;28;20185;-64
2022/08/15 11:58:10;;;;;;;7.88;5.18;;;;;;;;;;5054171;28;20516;-64
2022/08/15 12:00:48;;;;;;;9.70;4.82;;;;;;;;;;5069766;28;20615;-64
2022/08/15 12:03:17;;;;;;;8.10;5.10;;;;;;;;;;5052816;28;20192;-63
2022/08/15 12:05:43;;;;;;;14.70;6.05;;;;;;;;;;5049472;28;20532;-63
2022/08/15 12:08:08;;;;;;;8.68;5.13;;;;;;;;;;5059906;28;20656;-64
2022/08/15 12:10:40;;;;;;;11.75;5.65;;;;;;;;;;5064523;28;20237;-64
2022/08/15 12:13:06;;;;;;;9.38;5.57;;;;;;;;;;5053925;28;20246;-64
2022/08/15 12:15:32;;;;;;;9.40;5.80;;;;;;;;;;5057043;28;20190;-64
2022/08/15 12:18:08;;;;;;;8.77;5.78;;;;;;;;;;5061716;28;20526;-64
2022/08/15 12:21:04;;;;;;;16.35;5.80;;;;;;;;;;5049666;28;20268;-64
2022/08/15 12:23:36;;;;;;;7.90;5.63;;;;;;;;;;5051884;28;20220;-63
2022/08/15 12:26:13;;;;;;;9.35;5.95;;;;;;;;;;5068456;28;20512;-64
2022/08/15 12:28:41;;;;;;;7.10;6.38;;;;;;;;;;5061261;28;20302;-64
2022/08/15 12:31:34;;;;;;;11.38;6.30;;;;;;;;;;5062503;28;20362;-64
2022/08/15 12:34:13;;;;;;;14.27;5.68;;;;;;;;;;5053954;28;20651;-63
2022/08/15 12:36:44;;;;;;;9.70;6.38;;;;;;;;;;5050640;28;20189;-64
2022/08/15 12:39:12;;;;;;;13.68;5.82;;;;;;;;;;5057075;28;20210;-64
2022/08/15 12:41:45;;;;;;;9.40;6.10;;;;;;;;;;5050109;28;20181;-63
2022/08/15 12:44:19;;;;;;;7.75;5.97;;;;;;;;;;5068786;28;20187;-63
2022/08/15 12:46:44;;;;;;;6.88;5.43;;;;;;;;;;5061450;28;20660;-64
2022/08/15 12:49:10;;;;;;;5.90;5.03;;;;;;;;;;5059150;28;20200;-64
2022/08/15 12:51:35;;;;;;;8.93;5.47;;;;;;;;;;5053383;28;20192;-64
2022/08/15 12:54:00;;;;;;;8.48;5.57;;;;;;;;;;5060387;28;20586;-64
2022/08/15 12:56:26;;;;;;;7.78;5.30;;;;;;;;;;5067390;28;20839;-64
2022/08/15 12:58:51;;;;;;;12.85;5.82;;;;;;;;;;5067510;28;20541;-64
2022/08/15 13:01:17;;;;;;;6.70;4.97;;;;;;;;;;5068581;28;20194;-64
2022/08/15 13:03:44;;;;;;;10.07;5.65;;;;;;;;;;5068612;28;20386;-63
2022/08/15 13:06:28;;;;;;;6.97;5.47;;;;;;;;;;5049506;28;20664;-63
2022/08/15 13:08:54;;;;;;;9.90;5.50;;;;;;;;;;5051348;28;20197;-63
2022/08/15 13:11:21;;;;;;;11.30;5.82;;;;;;;;;;5054943;28;20310;-63
2022/08/15 13:13:47;;;;;;;5.88;5.28;;;;;;;;;;5067011;28;20180;-63
2022/08/15 13:16:12;;;;;;;10.35;5.82;;;;;;;;;;5050752;28;20234;-64
2022/08/15 13:18:38;;;;;;;10.10;5.68;;;;;;;;;;5059482;28;20264;-63
2022/08/15 13:23:52;;;;;;;12.07;7.13;;;;;;;;;;5058377;28;20271;-63
2022/08/15 13:26:20;;;;;;;10.38;7.00;;;;;;;;;;5046832;28;20185;-63
2022/08/15 13:28:47;;;;;;;8.30;6.22;;;;;;;;;;5056942;28;20251;-64
2022/08/15 13:31:16;;;;;;;8.73;6.18;;;;;;;;;;5052338;28;20236;-64
2022/08/15 13:33:42;;;;;;;10.35;6.07;;;;;;;;;;5057070;28;20260;-64
2022/08/15 13:36:12;;;;;;;13.80;7.47;;;;;;;;;;5054927;28;20189;-67
2022/08/15 13:38:42;;;;;;;9.82;7.30;;;;;;;;;;5051277;28;20185;-64
2022/08/15 13:41:11;;;;;;;7.60;6.70;;;;;;;;;;5060150;28;20259;-63
2022/08/15 13:43:42;;;;;;;7.40;6.32;;;;;;;;;;5067202;28;20192;-64
2022/08/15 13:46:10;;;;;;;8.77;6.53;;;;;;;;;;5065888;28;20267;-64
2022/08/15 13:48:39;;;;;;;10.95;6.57;;;;;;;;;;5055830;28;20297;-68
2022/08/15 13:51:10;;;;;;;7.38;6.22;;;;;;;;;;5067469;28;20180;-64
2022/08/15 13:53:36;;;;;;;7.13;6.18;;;;;;;;;;5060670;28;20185;-64
2022/08/15 13:56:02;;;;;;;6.32;5.53;;;;;;;;;;5061224;28;20185;-64
2022/08/15 13:58:30;;;;;;;10.30;6.07;;;;;;;;;;5063733;28;20496;-64
2022/08/15 14:01:00;;;;;;;10.57;7.22;;;;;;;;;;5068666;28;20235;-64
2022/08/15 14:03:26;;;;;;;7.65;6.63;;;;;;;;;;5061431;28;20187;-64
2022/08/15 14:05:52;;;;;;;13.85;6.65;;;;;;;;;;5067247;28;20292;-64
2022/08/15 14:08:19;;;;;;;12.98;5.90;;;;;;;;;;5070505;28;20265;-64
2022/08/15 14:10:44;;;;;;;6.32;5.70;;;;;;;;;;5059851;28;20184;-64
2022/08/15 14:13:10;;;;;;;7.18;5.38;;;;;;;;;;5057400;28;20181;-64
2022/08/15 14:15:35;;;;;;;8.30;5.90;;;;;;;;;;5059113;28;20246;-64
2022/08/15 14:18:02;;;;;;;10.05;5.97;;;;;;;;;;5051435;28;20185;-64
2022/08/15 14:20:27;;;;;;;6.55;5.63;;;;;;;;;;5061024;28;20589;-64
2022/08/15 14:22:54;;;;;;;11.57;5.60;;;;;;;;;;5064886;28;20199;-64
2022/08/15 14:25:20;;;;;;;8.85;5.15;;;;;;;;;;5059056;28;20188;-64
2022/08/15 14:27:46;;;;;;;11.80;5.25;;;;;;;;;;5069096;28;20224;-64
2022/08/15 14:30:13;;;;;;;10.20;5.90;;;;;;;;;;5056438;28;20669;-64
2022/08/15 14:32:40;;;;;;;11.07;4.88;;;;;;;;;;5059430;28;20538;-65
2022/08/15 14:35:08;;;;;;;8.18;5.65;;;;;;;;;;5064951;28;20183;-69
2022/08/15 14:37:35;;;;;;;7.45;5.90;;;;;;;;;;5051059;28;20181;-70
2022/08/15 14:40:00;;;;;;;10.15;5.50;;;;;;;;;;5061337;28;20184;-64
2022/08/15 14:42:26;;;;;;;12.90;6.78;;;;;;;;;;5050975;28;20554;-69
2022/08/15 14:44:53;;;;;;;8.85;4.82;;;;;;;;;;5056093;28;20547;-64
2022/08/15 14:47:19;;;;;;;6.05;5.45;;;;;;;;;;5070144;28;20192;-70
2022/08/15 14:49:47;;;;;;;9.95;6.10;;;;;;;;;;5052324;28;20649;-64
2022/08/15 14:52:15;;;;;;;9.18;6.35;;;;;;;;;;5059135;28;20188;-64
2022/08/15 14:54:41;;;;;;;8.00;5.60;;;;;;;;;;5061507;28;20553;-63
2022/08/15 14:57:07;;;;;;;7.85;5.78;;;;;;;;;;5050661;28;20177;-64
2022/08/15 14:59:33;;;;;;;7.18;5.38;;;;;;;;;;5055310;28;20185;-65
2022/08/15 15:01:59;;;;;;;8.20;5.25;;;;;;;;;;5058641;28;20258;-64
2022/08/15 15:04:25;;;;;;;5.93;5.30;;;;;;;;;;5062653;28;20184;-63